createdAt,value
2018-08-30T00:01:53.784Z,11.28
2018-08-30T00:04:21.358Z,10.28
2018-08-30T00:06:48.905Z,9.78
2018-08-30T00:09:16.464Z,11.18
2018-08-30T00:11:44.020Z,11.55
2018-08-30T00:14:11.652Z,10.13
2018-08-30T00:16:39.209Z,10.55
2018-08-30T00:19:06.794Z,10.48
2018-08-30T00:21:34.356Z,11.28
2018-08-30T00:24:01.914Z,10.28
2018-08-30T00:26:29.466Z,11.00
2018-08-30T00:28:57.020Z,11.20
2018-08-30T00:31:24.572Z,10.65
2018-08-30T00:33:52.130Z,10.75
2018-08-30T00:36:19.694Z,11.25
2018-08-30T00:38:47.257Z,10.82
2018-08-30T00:41:14.826Z,11.15
2018-08-30T00:43:42.381Z,11.38
2018-08-30T00:46:09.939Z,10.20
2018-08-30T00:48:37.504Z,10.80
2018-08-30T00:51:05.057Z,10.60
2018-08-30T00:53:32.601Z,11.12
2018-08-30T00:56:00.145Z,10.93
2018-08-30T00:58:27.707Z,10.40
2018-08-30T01:00:55.256Z,10.28
2018-08-30T01:03:22.820Z,10.25
2018-08-30T01:05:50.387Z,10.25
2018-08-30T01:08:17.946Z,10.55
2018-08-30T01:10:45.513Z,11.08
2018-08-30T01:13:13.071Z,10.40
2018-08-30T01:15:40.641Z,10.20
2018-08-30T01:18:08.188Z,10.75
2018-08-30T01:20:35.755Z,10.13
2018-08-30T01:23:03.305Z,9.88
2018-08-30T01:25:30.860Z,10.50
2018-08-30T01:27:58.418Z,10.63
2018-08-30T01:30:25.985Z,10.25
2018-08-30T01:32:53.559Z,10.88
2018-08-30T01:35:21.123Z,9.68
2018-08-30T01:37:48.678Z,9.78
2018-08-30T01:40:16.224Z,10.20
2018-08-30T01:42:43.768Z,10.20
2018-08-30T01:45:11.336Z,10.30
2018-08-30T01:47:38.890Z,10.53
2018-08-30T01:50:06.450Z,10.30
2018-08-30T01:52:34.000Z,10.40
2018-08-30T01:55:01.613Z,9.90
2018-08-30T01:57:29.156Z,10.05
2018-08-30T01:59:56.710Z,9.63
2018-08-30T02:02:24.279Z,10.50
2018-08-30T02:04:51.839Z,9.78
2018-08-30T02:07:19.390Z,9.53
2018-08-30T02:09:46.941Z,9.73
2018-08-30T02:12:14.488Z,9.20
2018-08-30T02:14:42.049Z,9.80
2018-08-30T02:17:09.615Z,8.83
2018-08-30T02:19:37.188Z,10.15
2018-08-30T02:22:04.881Z,9.98
2018-08-30T02:24:32.436Z,9.60
2018-08-30T02:26:59.978Z,8.80
2018-08-30T02:29:27.534Z,10.38
2018-08-30T02:31:55.077Z,9.50
2018-08-30T02:34:22.640Z,9.15
2018-08-30T02:36:50.190Z,9.50
2018-08-30T02:39:17.768Z,9.58
2018-08-30T02:41:45.308Z,10.23
2018-08-30T02:44:12.864Z,10.98
2018-08-30T02:46:40.430Z,9.75
2018-08-30T02:49:08.027Z,9.75
2018-08-30T02:51:35.568Z,10.72
2018-08-30T02:54:03.481Z,9.63
2018-08-30T02:56:33.064Z,10.15
2018-08-30T02:59:00.622Z,10.10
2018-08-30T03:01:28.185Z,10.75
2018-08-30T03:03:55.736Z,9.83
2018-08-30T03:06:23.284Z,10.28
2018-08-30T03:08:50.843Z,11.05
2018-08-30T03:11:18.387Z,11.03
2018-08-30T03:13:45.937Z,10.13
2018-08-30T03:16:13.484Z,9.73
2018-08-30T03:18:41.057Z,10.78
2018-08-30T03:21:08.625Z,10.72
2018-08-30T03:23:36.193Z,11.25
2018-08-30T03:26:03.764Z,11.90
2018-08-30T03:28:31.312Z,10.88
2018-08-30T03:30:58.894Z,11.43
2018-08-30T03:33:26.414Z,11.10
2018-08-30T03:35:53.977Z,10.80
2018-08-30T03:38:21.533Z,10.95
2018-08-30T03:40:49.072Z,9.85
2018-08-30T03:43:16.625Z,10.60
2018-08-30T03:45:44.181Z,11.08
2018-08-30T03:48:11.733Z,10.68
2018-08-30T03:50:39.277Z,11.25
2018-08-30T03:53:06.821Z,10.38
2018-08-30T03:55:34.379Z,9.65
2018-08-30T03:58:01.941Z,11.15
2018-08-30T04:00:29.497Z,11.05
2018-08-30T04:02:57.070Z,10.82
2018-08-30T04:05:24.637Z,10.28
2018-08-30T04:07:52.201Z,11.03
2018-08-30T04:10:19.770Z,10.00
2018-08-30T04:12:47.322Z,10.30
2018-08-30T04:15:14.888Z,11.00
2018-08-30T04:17:42.433Z,10.55
2018-08-30T04:20:10.014Z,9.73
2018-08-30T04:22:37.564Z,11.25
2018-08-30T04:25:05.148Z,11.53
2018-08-30T04:27:32.676Z,10.75
2018-08-30T04:30:00.232Z,11.38
2018-08-30T04:32:27.771Z,10.88
2018-08-30T04:34:55.325Z,10.98
2018-08-30T04:37:22.873Z,10.85
2018-08-30T04:39:50.428Z,10.70
2018-08-30T04:42:18.038Z,12.07
2018-08-30T04:44:45.544Z,10.80
2018-08-30T04:47:13.112Z,11.57
2018-08-30T04:49:40.657Z,10.98
2018-08-30T04:52:08.233Z,11.20
2018-08-30T04:54:35.793Z,11.20
2018-08-30T04:57:03.385Z,11.35
2018-08-30T04:59:30.922Z,10.90
2018-08-30T05:01:58.465Z,11.38
2018-08-30T05:04:26.038Z,11.55
2018-08-30T05:06:53.594Z,12.58
2018-08-30T05:09:21.117Z,12.55
2018-08-30T05:11:48.679Z,13.20
2018-08-30T05:14:16.256Z,13.05
2018-08-30T05:16:43.835Z,13.45
2018-08-30T05:19:11.384Z,11.95
2018-08-30T05:21:38.959Z,13.13
2018-08-30T05:24:06.522Z,12.93
2018-08-30T05:26:34.069Z,14.07
2018-08-30T05:29:01.616Z,14.20
2018-08-30T05:31:29.172Z,14.18
2018-08-30T05:33:56.744Z,12.35
2018-08-30T05:36:24.304Z,12.90
2018-08-30T05:38:51.848Z,12.82
2018-08-30T05:41:19.406Z,12.33
2018-08-30T05:43:47.013Z,12.58
2018-08-30T05:46:14.572Z,12.65
2018-08-30T05:48:42.104Z,12.25
2018-08-30T05:51:09.647Z,12.05
2018-08-30T05:53:37.204Z,12.23
2018-08-30T05:56:04.808Z,11.57
2018-08-30T05:58:44.668Z,13.15
2018-08-30T06:01:12.251Z,13.35
2018-08-30T06:03:39.901Z,12.15
2018-08-30T06:06:07.471Z,11.95
2018-08-30T06:08:35.049Z,11.53
2018-08-30T06:11:02.576Z,12.13
2018-08-30T06:13:30.136Z,12.05
2018-08-30T06:15:57.684Z,11.83
2018-08-30T06:18:25.209Z,11.18
2018-08-30T06:20:52.769Z,12.58
2018-08-30T06:23:20.557Z,11.53
2018-08-30T06:25:48.108Z,12.13
2018-08-30T06:28:15.649Z,11.83
2018-08-30T06:30:43.221Z,11.90
2018-08-30T06:33:10.769Z,11.60
2018-08-30T06:35:38.311Z,12.28
2018-08-30T06:38:05.877Z,12.37
2018-08-30T06:40:33.415Z,12.70
2018-08-30T06:43:00.984Z,12.73
2018-08-30T06:45:28.540Z,13.32
2018-08-30T06:47:56.122Z,13.32
2018-08-30T06:50:23.660Z,14.43
2018-08-30T06:52:51.224Z,13.08
2018-08-30T06:55:18.777Z,14.33
2018-08-30T06:57:46.357Z,14.05
2018-08-30T07:00:13.902Z,14.45
2018-08-30T07:02:41.464Z,14.10
2018-08-30T07:05:09.053Z,15.45
2018-08-30T07:07:36.604Z,14.35
2018-08-30T07:10:05.040Z,13.75
2018-08-30T07:12:32.601Z,14.38
2018-08-30T07:15:00.239Z,15.98
2018-08-30T07:17:27.737Z,15.32
2018-08-30T07:19:55.355Z,16.37
2018-08-30T07:22:22.997Z,15.72
2018-08-30T07:24:50.551Z,15.98
2018-08-30T07:27:18.100Z,15.40
2018-08-30T07:29:45.634Z,15.50
2018-08-30T07:32:13.183Z,17.73
2018-08-30T07:34:40.750Z,16.57
2018-08-30T07:37:08.316Z,16.07
2018-08-30T07:39:35.860Z,16.02
2018-08-30T07:42:03.500Z,17.25
2018-08-30T07:44:31.178Z,16.37
2018-08-30T07:46:58.620Z,16.65
2018-08-30T07:49:26.167Z,15.65
2018-08-30T07:51:53.748Z,16.48
2018-08-30T07:54:21.362Z,17.10
2018-08-30T07:56:48.868Z,17.20
2018-08-30T07:59:16.449Z,17.20
2018-08-30T08:01:44.005Z,16.52
2018-08-30T08:04:11.597Z,18.42
2018-08-30T08:06:39.187Z,19.27
2018-08-30T08:09:08.496Z,18.30
2018-08-30T08:11:36.074Z,19.98
2018-08-30T08:14:03.708Z,19.80
2018-08-30T08:16:31.416Z,20.95
2018-08-30T08:18:59.027Z,19.35
2018-08-30T08:21:26.600Z,21.97
2018-08-30T08:23:54.160Z,22.25
2018-08-30T08:26:21.836Z,24.07
2018-08-30T08:28:49.630Z,24.30
2018-08-30T08:31:23.926Z,25.52
2018-08-30T08:33:51.476Z,25.00
2018-08-30T08:36:19.064Z,26.60
2018-08-30T08:38:46.615Z,26.40
2018-08-30T08:41:14.148Z,27.73
2018-08-30T08:43:41.710Z,27.85
2018-08-30T08:46:09.256Z,29.42
2018-08-30T08:48:36.818Z,29.60
2018-08-30T08:51:04.377Z,31.12
2018-08-30T08:53:31.937Z,29.77
2018-08-30T08:55:59.480Z,31.45
2018-08-30T08:58:27.037Z,30.27
2018-08-30T09:00:54.585Z,30.45
2018-08-30T09:03:22.150Z,33.05
2018-08-30T09:05:49.692Z,33.85
2018-08-30T09:08:17.255Z,32.50
2018-08-30T09:10:44.822Z,33.45
2018-08-30T09:13:12.426Z,32.15
2018-08-30T09:15:39.990Z,32.67
2018-08-30T09:18:07.555Z,33.08
2018-08-30T09:20:35.117Z,33.00
2018-08-30T09:23:02.706Z,34.40
2018-08-30T09:25:30.252Z,33.50
2018-08-30T09:27:57.816Z,34.30
2018-08-30T09:30:25.398Z,33.30
2018-08-30T09:32:52.959Z,34.13
2018-08-30T09:35:20.642Z,37.60
2018-08-30T09:37:48.188Z,35.25
2018-08-30T09:40:28.901Z,35.10
2018-08-30T09:42:56.447Z,35.63
2018-08-30T09:45:24.002Z,35.17
2018-08-30T09:47:51.561Z,34.23
2018-08-30T09:50:19.108Z,33.60
2018-08-30T09:52:46.652Z,36.25
2018-08-30T09:55:14.222Z,33.85
2018-08-30T09:57:41.831Z,35.15
2018-08-30T10:00:18.029Z,39.08
2018-08-30T10:02:48.947Z,39.53
2018-08-30T10:05:16.828Z,41.83
2018-08-30T10:07:44.677Z,44.03
2018-08-30T10:10:12.212Z,47.88
2018-08-30T10:12:39.784Z,50.15
2018-08-30T10:15:07.332Z,50.52
2018-08-30T10:17:35.213Z,49.18
2018-08-30T10:20:02.790Z,51.13
2018-08-30T10:22:30.366Z,53.13
2018-08-30T10:24:57.921Z,54.25
2018-08-30T10:27:25.460Z,55.70
2018-08-30T10:29:53.034Z,54.40
2018-08-30T10:32:20.584Z,55.43
2018-08-30T10:34:48.128Z,57.33
2018-08-30T10:37:15.687Z,55.70
2018-08-30T10:39:43.244Z,56.70
2018-08-30T10:42:10.794Z,56.10
2018-08-30T10:44:38.360Z,55.00
2018-08-30T10:47:05.935Z,54.85
2018-08-30T10:49:33.665Z,52.00
2018-08-30T10:52:01.060Z,53.28
2018-08-30T10:54:28.624Z,54.58
2018-08-30T10:56:56.186Z,53.30
2018-08-30T10:59:23.748Z,52.30
2018-08-30T11:01:51.364Z,50.25
2018-08-30T11:04:19.000Z,52.13
2018-08-30T11:06:46.539Z,48.40
2018-08-30T11:09:14.097Z,48.17
2018-08-30T11:11:41.653Z,47.38
2018-08-30T11:14:09.212Z,48.63
2018-08-30T11:16:36.752Z,47.25
2018-08-30T11:19:04.316Z,45.90
2018-08-30T11:21:31.874Z,45.15
2018-08-30T11:23:59.436Z,45.60
2018-08-30T11:26:26.972Z,45.85
2018-08-30T11:28:54.546Z,46.10
2018-08-30T11:31:22.316Z,43.75
2018-08-30T11:33:49.868Z,44.15
2018-08-30T11:36:17.437Z,44.80
2018-08-30T11:38:45.021Z,42.62
2018-08-30T11:41:12.674Z,42.83
2018-08-30T11:43:40.207Z,40.92
2018-08-30T11:46:07.769Z,40.80
2018-08-30T11:48:35.338Z,42.88
2018-08-30T11:51:02.935Z,45.70
2018-08-30T11:53:30.558Z,41.83
2018-08-30T11:55:58.115Z,37.83
2018-08-30T11:58:25.690Z,40.05
2018-08-30T12:00:53.335Z,40.25
2018-08-30T12:03:21.730Z,42.85
2018-08-30T12:05:50.134Z,42.03
2018-08-30T12:08:17.751Z,39.73
2018-08-30T12:10:45.397Z,29.90
2018-08-30T12:13:12.935Z,23.95
2018-08-30T12:15:40.506Z,17.40
2018-08-30T12:18:08.074Z,15.20
2018-08-30T12:20:35.693Z,13.83
2018-08-30T12:23:03.401Z,11.45
2018-08-30T12:25:30.976Z,11.00
2018-08-30T12:27:58.520Z,11.40
2018-08-30T12:30:26.112Z,11.57
2018-08-30T12:32:53.696Z,10.20
2018-08-30T12:35:21.280Z,10.43
2018-08-30T12:37:48.870Z,11.18
2018-08-30T12:40:16.490Z,10.30
2018-08-30T12:42:44.003Z,9.08
2018-08-30T12:45:11.587Z,10.00
2018-08-30T12:47:39.090Z,9.60
2018-08-30T12:50:06.738Z,10.35
2018-08-30T12:52:34.341Z,10.55
2018-08-30T12:55:01.990Z,10.65
2018-08-30T12:57:29.916Z,10.23
2018-08-30T12:59:57.515Z,10.18
2018-08-30T13:02:25.107Z,10.32
2018-08-30T13:04:52.760Z,10.75
2018-08-30T13:07:22.439Z,10.45
2018-08-30T13:09:50.405Z,12.28
2018-08-30T13:12:18.144Z,10.82
2018-08-30T13:14:45.638Z,11.83
2018-08-30T13:17:13.084Z,9.93
2018-08-30T13:19:40.818Z,10.75
2018-08-30T13:22:08.535Z,10.98
2018-08-30T13:24:36.058Z,9.25
2018-08-30T13:27:03.567Z,8.30
2018-08-30T13:29:31.023Z,7.08
2018-08-30T13:31:58.733Z,5.83
2018-08-30T13:34:26.297Z,5.58
2018-08-30T13:36:53.799Z,6.15
2018-08-30T13:39:21.657Z,6.40
2018-08-30T13:41:49.133Z,6.95
2018-08-30T13:44:16.400Z,7.10
2018-08-30T13:46:44.338Z,6.20
2018-08-30T13:49:11.738Z,7.65
2018-08-30T13:51:39.328Z,7.45
2018-08-30T13:54:07.048Z,7.97
2018-08-30T13:56:34.599Z,6.50
2018-08-30T13:59:02.573Z,7.75
2018-08-30T14:01:30.101Z,7.58
2018-08-30T14:03:57.277Z,6.87
2018-08-30T14:06:24.870Z,6.70
2018-08-30T14:08:52.437Z,7.87
2018-08-30T14:11:20.058Z,8.18
2018-08-30T14:13:47.553Z,9.40
2018-08-30T14:16:14.937Z,8.48
2018-08-30T14:18:42.468Z,9.95
2018-08-30T14:21:10.081Z,12.10
2018-08-30T14:23:37.548Z,13.00
2018-08-30T14:26:05.949Z,13.95
2018-08-30T14:28:33.502Z,15.15
2018-08-30T14:31:07.758Z,16.05
2018-08-30T14:33:35.309Z,12.07
2018-08-30T14:36:02.904Z,13.55
2018-08-30T14:38:30.416Z,11.45
2018-08-30T14:40:58.172Z,9.93
2018-08-30T14:43:25.558Z,9.28
2018-08-30T14:45:53.108Z,9.25
2018-08-30T14:48:20.737Z,8.70
2018-08-30T14:50:48.348Z,8.18
2018-08-30T14:53:15.926Z,8.75
2018-08-30T14:55:43.460Z,8.88
2018-08-30T14:58:11.169Z,7.50
2018-08-30T15:00:38.636Z,8.13
2018-08-30T15:03:06.207Z,8.88
2018-08-30T15:05:33.930Z,9.53
2018-08-30T15:08:01.324Z,8.45
2018-08-30T15:10:28.904Z,9.08
2018-08-30T15:12:56.476Z,9.53
2018-08-30T15:15:24.064Z,9.20
2018-08-30T15:17:51.650Z,8.18
2018-08-30T15:20:19.221Z,9.23
2018-08-30T15:22:46.773Z,9.13
2018-08-30T15:25:14.341Z,9.23
2018-08-30T15:27:41.880Z,8.85
2018-08-30T15:30:09.437Z,9.85
2018-08-30T15:32:37.004Z,9.78
2018-08-30T15:35:04.939Z,9.65
2018-08-30T15:37:34.543Z,9.93
2018-08-30T15:40:10.398Z,10.10
2018-08-30T15:42:44.309Z,10.40
2018-08-30T15:45:28.729Z,10.85
2018-08-30T15:47:56.348Z,11.10
2018-08-30T15:50:23.908Z,11.03
2018-08-30T15:53:12.485Z,11.12
2018-08-30T15:56:01.132Z,11.80
2018-08-30T15:58:38.666Z,11.57
2018-08-30T16:01:06.259Z,12.37
2018-08-30T16:03:34.021Z,11.73
2018-08-30T16:06:01.944Z,11.45
2018-08-30T16:08:29.493Z,11.60
2018-08-30T16:10:57.066Z,11.80
2018-08-30T16:13:24.698Z,11.38
2018-08-30T16:15:52.222Z,12.25
2018-08-30T16:18:19.753Z,11.53
2018-08-30T16:20:47.317Z,11.25
2018-08-30T16:23:34.828Z,11.03
2018-08-30T16:26:02.408Z,11.40
2018-08-30T16:28:30.864Z,11.63
2018-08-30T16:30:58.475Z,11.88
2018-08-30T16:33:26.194Z,12.70
2018-08-30T16:35:53.781Z,11.85
2018-08-30T16:38:21.332Z,11.97
2018-08-30T16:40:48.983Z,11.73
2018-08-30T16:43:16.464Z,11.22
2018-08-30T16:45:44.500Z,11.25
2018-08-30T16:48:12.065Z,10.13
2018-08-30T16:50:39.642Z,11.18
2018-08-30T16:53:07.281Z,10.85
2018-08-30T16:55:35.299Z,11.25
2018-08-30T16:58:02.874Z,11.55
2018-08-30T17:00:30.424Z,11.40
2018-08-30T17:02:58.289Z,12.18
2018-08-30T17:05:26.016Z,11.85
2018-08-30T17:07:53.607Z,10.60
2018-08-30T17:10:21.190Z,11.48
2018-08-30T17:12:48.764Z,11.03
2018-08-30T17:15:16.301Z,11.48
2018-08-30T17:17:43.932Z,11.70
2018-08-30T17:20:17.894Z,11.80
2018-08-30T17:22:45.314Z,11.30
2018-08-30T17:25:12.937Z,11.55
2018-08-30T17:27:40.479Z,11.15
2018-08-30T17:30:08.067Z,10.93
2018-08-30T17:32:35.952Z,11.28
2018-08-30T17:35:03.547Z,11.35
2018-08-30T17:37:31.097Z,11.35
2018-08-30T17:39:58.657Z,10.65
2018-08-30T17:42:26.235Z,11.10
2018-08-30T17:51:04.461Z,12.20
2018-08-30T17:53:32.002Z,12.55
2018-08-30T17:55:59.702Z,11.95
2018-08-30T17:58:27.159Z,12.47
2018-08-30T18:00:54.723Z,12.45
2018-08-30T18:03:22.354Z,12.10
2018-08-30T18:05:49.852Z,11.65
2018-08-30T18:08:17.406Z,12.98
2018-08-30T18:10:44.965Z,12.73
2018-08-30T18:13:12.525Z,12.68
2018-08-30T18:15:40.065Z,12.43
2018-08-30T18:18:07.663Z,12.95
2018-08-30T18:20:35.179Z,12.18
2018-08-30T18:23:02.764Z,12.82
2018-08-30T18:25:30.332Z,12.78
2018-08-30T18:27:57.882Z,12.93
2018-08-30T18:30:25.426Z,11.80
2018-08-30T18:32:52.997Z,12.10
2018-08-30T18:35:20.550Z,12.53
2018-08-30T18:37:48.104Z,11.68
2018-08-30T18:40:15.644Z,13.03
2018-08-30T18:42:43.197Z,11.80
2018-08-30T18:45:10.744Z,12.43
2018-08-30T18:47:38.280Z,12.07
2018-08-30T18:50:05.888Z,12.30
2018-08-30T18:52:33.748Z,11.40
2018-08-30T18:55:01.312Z,11.22
2018-08-30T18:57:28.865Z,11.93
2018-08-30T18:59:56.384Z,11.45
2018-08-30T19:02:23.955Z,10.53
2018-08-30T19:05:02.038Z,10.40
2018-08-30T19:07:29.603Z,10.05
2018-08-30T19:09:57.157Z,9.45
2018-08-30T19:12:24.728Z,9.80
2018-08-30T19:14:52.273Z,9.18
2018-08-30T19:20:31.228Z,9.13
2018-08-30T19:22:58.756Z,9.23
2018-08-30T19:25:27.916Z,8.90
2018-08-30T19:27:55.678Z,8.23
2018-08-30T19:30:27.360Z,8.60
2018-08-30T19:32:56.132Z,9.18
2018-08-30T19:35:29.550Z,8.08
2018-08-30T19:37:57.156Z,8.70
2018-08-30T19:40:30.505Z,9.15
2018-08-30T19:42:58.978Z,9.63
2018-08-30T19:45:26.928Z,10.68
2018-08-30T19:47:55.018Z,10.48
2018-08-30T19:50:22.605Z,10.98
2018-08-30T19:52:50.162Z,12.28
2018-08-30T19:55:17.994Z,11.73
2018-08-30T19:57:45.623Z,11.78
2018-08-30T20:00:13.184Z,12.60
2018-08-30T20:02:40.728Z,13.40
2018-08-30T20:05:08.310Z,13.65
2018-08-30T20:07:36.107Z,13.58
2018-08-30T20:10:04.307Z,13.15
2018-08-30T20:12:31.853Z,12.98
2018-08-30T20:15:03.278Z,13.08
2018-08-30T20:17:30.821Z,14.15
2018-08-30T20:19:58.394Z,12.93
2018-08-30T20:22:25.974Z,12.93
2018-08-30T20:24:53.509Z,11.78
2018-08-30T20:27:21.068Z,11.90
2018-08-30T20:29:48.596Z,11.78
2018-08-30T20:32:16.180Z,11.15
2018-08-30T20:34:43.729Z,11.97
2018-08-30T20:37:11.324Z,11.33
2018-08-30T20:39:38.873Z,10.05
2018-08-30T20:42:06.412Z,10.33
2018-08-30T20:44:33.939Z,10.13
2018-08-30T20:47:01.566Z,10.15
2018-08-30T20:49:29.109Z,10.27
2018-08-30T20:52:03.444Z,8.75
2018-08-30T20:54:30.988Z,8.35
2018-08-30T20:56:58.580Z,8.63
2018-08-30T20:59:26.493Z,7.87
2018-08-30T21:01:54.109Z,8.60
2018-08-30T21:04:21.624Z,8.03
2018-08-30T21:06:49.181Z,7.60
2018-08-30T21:09:16.720Z,8.07
2018-08-30T21:11:44.278Z,9.07
2018-08-30T21:14:11.840Z,7.83
2018-08-30T21:16:39.380Z,7.60
2018-08-30T21:19:06.917Z,7.90
2018-08-30T21:21:34.465Z,8.83
2018-08-30T21:24:02.015Z,8.43
2018-08-30T21:26:29.567Z,8.23
2018-08-30T21:28:57.096Z,8.70
2018-08-30T21:31:24.640Z,8.67
2018-08-30T21:33:52.177Z,8.93
2018-08-30T21:36:19.723Z,8.80
2018-08-30T21:38:47.277Z,8.90
2018-08-30T21:41:14.838Z,8.30
2018-08-30T21:43:42.381Z,8.20
2018-08-30T21:46:09.946Z,7.77
2018-08-30T21:48:37.474Z,8.67
2018-08-30T21:51:05.066Z,9.27
2018-08-30T21:53:32.621Z,8.57
2018-08-30T21:56:00.211Z,8.13
2018-08-30T21:58:27.756Z,8.20
2018-08-30T22:00:55.305Z,8.33
2018-08-30T22:03:22.859Z,9.33
2018-08-30T22:05:57.083Z,9.47
2018-08-30T22:08:24.637Z,9.27
2018-08-30T22:10:52.182Z,9.67
2018-08-30T22:13:19.806Z,9.87
2018-08-30T22:15:47.297Z,9.67
2018-08-30T22:18:14.844Z,9.70
2018-08-30T22:20:42.469Z,10.27
2018-08-30T22:23:10.048Z,9.17
2018-08-30T22:25:37.610Z,9.17
2018-08-30T22:28:05.608Z,10.00
2018-08-30T22:30:33.164Z,10.37
2018-08-30T22:33:00.734Z,9.30
2018-08-30T22:35:28.321Z,10.17
2018-08-30T22:37:55.877Z,10.07
2018-08-30T22:40:23.526Z,10.40
2018-08-30T22:42:51.056Z,10.27
2018-08-30T22:47:51.909Z,10.90
2018-08-30T22:50:19.456Z,10.67
2018-08-30T22:52:46.995Z,10.80
2018-08-30T22:55:14.540Z,11.33
2018-08-30T22:57:42.128Z,10.87
2018-08-30T23:00:09.627Z,10.53
2018-08-30T23:02:37.201Z,10.93
2018-08-30T23:05:04.801Z,11.00
2018-08-30T23:07:32.348Z,10.90
2018-08-30T23:09:59.896Z,10.83
2018-08-30T23:12:27.438Z,11.10
2018-08-30T23:14:54.983Z,11.10
2018-08-30T23:17:22.508Z,11.43
2018-08-30T23:19:50.073Z,11.40
2018-08-30T23:22:17.621Z,10.00
2018-08-30T23:24:45.168Z,10.30
2018-08-30T23:27:12.726Z,9.93
2018-08-30T23:29:40.264Z,9.43
2018-08-30T23:32:07.805Z,9.40
2018-08-30T23:34:35.349Z,8.60
2018-08-30T23:37:02.914Z,8.40
2018-08-30T23:39:30.464Z,8.67
2018-08-30T23:41:58.038Z,8.70
2018-08-30T23:44:25.572Z,9.10
2018-08-30T23:46:53.125Z,8.07
2018-08-30T23:49:20.685Z,7.87
2018-08-30T23:51:48.242Z,7.57
2018-08-30T23:54:15.780Z,7.47
2018-08-30T23:56:43.329Z,7.67
2018-08-30T23:59:28.308Z,8.30
